createdAt,value
2019-05-18T00:03:57.080Z,7.70
2019-05-18T00:08:50.737Z,7.43
2019-05-18T00:13:44.944Z,7.37
2019-05-18T00:18:38.509Z,8.53
2019-05-18T00:23:31.643Z,7.17
2019-05-18T00:28:25.190Z,7.87
2019-05-18T00:33:18.731Z,7.30
2019-05-18T00:38:12.248Z,7.07
2019-05-18T00:43:05.589Z,7.53
2019-05-18T00:47:59.230Z,7.57
2019-05-18T00:52:53.899Z,8.70
2019-05-18T00:57:47.375Z,8.10
2019-05-18T01:02:41.064Z,7.63
2019-05-18T01:07:34.940Z,6.90
2019-05-18T01:12:28.638Z,9.13
2019-05-18T01:17:22.135Z,6.73
2019-05-18T01:22:15.697Z,7.20
2019-05-18T01:27:09.288Z,8.47
2019-05-18T01:32:02.970Z,8.30
2019-05-18T01:36:56.462Z,6.70
2019-05-18T01:41:49.915Z,7.60
2019-05-18T01:46:43.599Z,7.50
2019-05-18T01:51:37.293Z,6.87
2019-05-18T01:56:30.873Z,7.20
2019-05-18T02:01:24.595Z,7.17
2019-05-18T02:06:18.304Z,6.60
2019-05-18T02:11:11.913Z,6.07
2019-05-18T02:16:05.817Z,7.50
2019-05-18T02:20:59.431Z,7.30
2019-05-18T02:25:54.572Z,7.20
2019-05-18T02:30:48.164Z,8.00
2019-05-18T02:35:42.776Z,6.73
2019-05-18T02:40:36.773Z,7.43
2019-05-18T02:45:30.307Z,7.80
2019-05-18T02:50:23.848Z,6.80
2019-05-18T02:55:17.448Z,7.20
2019-05-18T03:00:11.706Z,7.17
2019-05-18T03:05:07.701Z,8.37
2019-05-18T03:10:03.317Z,7.47
2019-05-18T03:14:57.117Z,8.27
2019-05-18T03:19:50.564Z,7.90
2019-05-18T03:24:44.400Z,7.87
2019-05-18T03:29:38.238Z,8.93
2019-05-18T03:34:31.747Z,7.40
2019-05-18T03:39:25.878Z,7.90
2019-05-18T03:44:20.101Z,9.23
2019-05-18T03:49:26.300Z,7.57
2019-05-18T03:54:09.352Z,6.67
2019-05-18T03:59:03.020Z,6.83
2019-05-18T04:03:57.261Z,7.97
2019-05-18T04:08:50.872Z,7.10
2019-05-18T04:13:44.470Z,6.73
2019-05-18T04:18:38.158Z,7.97
2019-05-18T04:23:31.746Z,7.00
2019-05-18T04:28:25.332Z,8.83
2019-05-18T04:33:18.920Z,8.10
2019-05-18T04:38:13.068Z,8.53
2019-05-18T04:43:06.564Z,8.83
2019-05-18T04:48:00.176Z,9.13
2019-05-18T04:52:53.619Z,8.07
2019-05-18T04:57:47.223Z,7.70
2019-05-18T05:02:40.727Z,9.80
2019-05-18T05:07:34.117Z,8.53
2019-05-18T05:12:27.877Z,8.37
2019-05-18T05:17:22.639Z,7.63
2019-05-18T05:22:16.288Z,8.07
2019-05-18T05:27:09.730Z,7.43
2019-05-18T05:32:03.546Z,9.07
2019-05-18T05:36:57.119Z,8.03
2019-05-18T05:41:50.928Z,8.77
2019-05-18T05:46:44.470Z,8.13
2019-05-18T05:51:38.280Z,12.33
2019-05-18T05:56:32.071Z,7.87
2019-05-18T06:01:25.965Z,9.07
2019-05-18T06:06:22.992Z,8.00
2019-05-18T06:11:15.204Z,8.17
2019-05-18T06:16:09.063Z,8.27
2019-05-18T06:21:02.521Z,8.13
2019-05-18T06:25:56.226Z,7.50
2019-05-18T06:30:49.951Z,7.80
2019-05-18T06:35:43.713Z,9.50
2019-05-18T06:40:37.317Z,7.97
2019-05-18T06:45:30.855Z,7.43
2019-05-18T06:50:31.033Z,7.63
2019-05-18T06:55:25.773Z,7.60
2019-05-18T07:00:19.494Z,6.80
2019-05-18T07:05:13.751Z,7.27
2019-05-18T07:10:07.523Z,7.03
2019-05-18T07:15:01.216Z,6.70
2019-05-18T07:19:56.344Z,5.87
2019-05-18T07:24:50.797Z,6.20
2019-05-18T07:29:44.347Z,6.00
2019-05-18T07:34:39.336Z,6.67
2019-05-18T07:39:36.192Z,6.20
2019-05-18T07:44:32.607Z,6.30
2019-05-18T07:49:26.134Z,6.27
2019-05-18T07:54:19.904Z,6.90
2019-05-18T07:59:13.532Z,6.70
2019-05-18T08:04:07.367Z,10.00
2019-05-18T08:09:03.572Z,7.23
2019-05-18T08:13:58.809Z,8.10
2019-05-18T08:18:52.444Z,7.27
2019-05-18T08:23:47.599Z,9.00
2019-05-18T08:28:41.208Z,7.40
2019-05-18T08:33:34.887Z,7.10
2019-05-18T08:38:28.406Z,10.10
2019-05-18T08:43:22.331Z,6.93
2019-05-18T08:48:16.169Z,8.53
2019-05-18T08:53:09.819Z,8.53
2019-05-18T08:58:04.793Z,7.50
2019-05-18T09:02:58.273Z,7.87
2019-05-18T09:07:53.031Z,9.07
2019-05-18T09:12:46.546Z,10.37
2019-05-18T09:17:40.680Z,9.73
2019-05-18T09:22:34.236Z,9.90
2019-05-18T09:27:28.341Z,10.70
2019-05-18T09:32:22.026Z,10.83
2019-05-18T09:37:16.264Z,9.27
2019-05-18T09:42:09.833Z,10.57
2019-05-18T09:47:03.320Z,10.90
2019-05-18T09:51:57.350Z,11.30
2019-05-18T09:56:51.091Z,11.00
2019-05-18T10:01:45.191Z,10.20
2019-05-18T10:06:40.511Z,11.20
2019-05-18T10:11:38.516Z,9.80
2019-05-18T10:16:29.814Z,7.97
2019-05-18T10:21:23.295Z,8.67
2019-05-18T10:26:16.664Z,8.27
2019-05-18T10:31:11.847Z,10.43
2019-05-18T10:36:05.568Z,9.93
2019-05-18T10:40:59.169Z,11.27
2019-05-18T10:45:53.065Z,12.90
2019-05-18T10:50:46.731Z,8.87
2019-05-18T10:55:40.315Z,8.73
2019-05-18T11:00:34.009Z,9.07
2019-05-18T11:05:27.658Z,6.20
2019-05-18T11:10:24.379Z,6.53
2019-05-18T11:15:18.399Z,5.70
2019-05-18T11:20:12.903Z,4.30
2019-05-18T11:25:07.494Z,3.90
2019-05-18T11:30:01.325Z,5.00
2019-05-18T11:34:54.923Z,5.67
2019-05-18T11:39:48.417Z,5.70
2019-05-18T11:44:42.163Z,4.40
2019-05-18T11:49:35.668Z,4.77
2019-05-18T11:54:30.945Z,4.80
2019-05-18T11:59:24.485Z,4.83
2019-05-18T12:04:18.442Z,4.47
2019-05-18T12:09:11.884Z,4.10
2019-05-18T12:14:05.502Z,4.27
2019-05-18T12:18:59.388Z,5.20
2019-05-18T12:23:53.044Z,5.60
2019-05-18T12:28:46.647Z,3.87
2019-05-18T12:33:40.155Z,3.90
2019-05-18T12:38:33.830Z,5.40
2019-05-18T12:43:27.417Z,7.20
2019-05-18T12:48:21.153Z,4.20
2019-05-18T12:53:17.565Z,3.87
2019-05-18T12:58:10.160Z,5.60
2019-05-18T13:03:03.598Z,5.23
2019-05-18T13:07:57.026Z,4.10
2019-05-18T13:12:50.907Z,6.13
2019-05-18T13:17:44.515Z,4.50
2019-05-18T13:22:38.004Z,4.50
2019-05-18T13:27:39.632Z,4.80
2019-05-18T13:32:27.387Z,5.83
2019-05-18T13:37:21.101Z,4.70
2019-05-18T13:42:14.785Z,4.83
2019-05-18T13:47:08.160Z,4.30
2019-05-18T13:52:01.873Z,5.73
2019-05-18T13:56:55.500Z,4.00
2019-05-18T14:01:49.171Z,3.63
2019-05-18T14:06:43.016Z,4.73
2019-05-18T14:11:36.644Z,3.87
2019-05-18T14:16:30.214Z,3.63
2019-05-18T14:21:23.956Z,5.70
2019-05-18T14:26:18.570Z,4.00
2019-05-18T14:31:12.167Z,3.23
2019-05-18T14:36:06.580Z,5.07
2019-05-18T14:40:59.861Z,2.30
2019-05-18T14:45:53.631Z,3.13
2019-05-18T14:50:47.260Z,6.03
2019-05-18T14:55:40.863Z,4.63
2019-05-18T15:00:34.326Z,3.13
2019-05-18T15:05:27.798Z,3.00
2019-05-18T15:10:22.365Z,2.43
2019-05-18T15:15:16.540Z,3.00
2019-05-18T15:20:10.525Z,3.13
2019-05-18T15:25:04.610Z,2.17
2019-05-18T15:29:58.417Z,3.03
2019-05-18T15:34:52.122Z,2.37
2019-05-18T15:39:45.836Z,3.23
2019-05-18T15:44:39.773Z,4.90
2019-05-18T15:49:33.361Z,4.07
2019-05-18T15:54:26.957Z,2.37
2019-05-18T15:59:20.363Z,4.17
2019-05-18T16:04:13.869Z,4.33
2019-05-18T16:09:07.757Z,3.40
2019-05-18T16:14:01.330Z,4.73
2019-05-18T16:18:54.960Z,4.83
2019-05-18T16:23:48.463Z,5.17
2019-05-18T16:28:42.016Z,5.47
2019-05-18T16:33:35.484Z,5.37
2019-05-18T16:38:28.996Z,6.50
2019-05-18T16:43:25.751Z,4.77
2019-05-18T16:48:19.289Z,4.50
2019-05-18T16:53:12.872Z,5.17
2019-05-18T16:58:06.185Z,5.27
2019-05-18T17:02:59.758Z,4.77
2019-05-18T17:07:52.996Z,8.10
2019-05-18T17:12:46.502Z,5.83
2019-05-18T17:17:40.052Z,6.20
2019-05-18T17:22:33.674Z,6.50
2019-05-18T17:27:27.121Z,6.97
2019-05-18T17:32:20.824Z,7.43
2019-05-18T17:37:14.508Z,6.00
2019-05-18T17:42:08.447Z,7.10
2019-05-18T17:47:01.951Z,5.90
2019-05-18T17:51:56.378Z,5.83
2019-05-18T17:56:50.220Z,6.43
2019-05-18T18:01:43.870Z,5.73
2019-05-18T18:06:37.468Z,6.40
2019-05-18T18:11:31.174Z,5.80
2019-05-18T18:16:27.021Z,6.97
2019-05-18T18:21:20.823Z,10.00
2019-05-18T18:26:14.437Z,7.90
2019-05-18T18:31:07.932Z,5.67
2019-05-18T18:36:01.463Z,6.47
2019-05-18T18:40:56.446Z,5.67
2019-05-18T18:45:49.995Z,6.20
2019-05-18T18:50:43.542Z,6.43
2019-05-18T18:55:38.260Z,9.67
2019-05-18T19:00:31.925Z,6.73
2019-05-18T19:05:25.548Z,5.83
2019-05-18T19:10:19.116Z,4.27
2019-05-18T19:15:13.569Z,5.53
2019-05-18T19:20:08.591Z,5.77
2019-05-18T19:25:02.435Z,5.50
2019-05-18T19:29:56.086Z,7.47
2019-05-18T19:34:50.018Z,10.97
2019-05-18T19:39:43.706Z,7.80
2019-05-18T19:44:37.469Z,8.00
2019-05-18T19:49:31.382Z,8.00
2019-05-18T19:54:26.335Z,7.60
2019-05-18T19:59:20.102Z,6.80
2019-05-18T20:04:13.639Z,7.63
2019-05-18T20:09:07.532Z,10.33
2019-05-18T20:14:01.216Z,7.00
2019-05-18T20:18:54.905Z,9.00
2019-05-18T20:23:48.353Z,7.50
2019-05-18T20:28:41.983Z,9.40
2019-05-18T20:33:37.341Z,9.77
2019-05-18T20:38:31.012Z,10.67
2019-05-18T20:43:24.619Z,10.23
2019-05-18T20:48:18.331Z,9.43
2019-05-18T20:53:12.035Z,8.57
2019-05-18T20:58:07.647Z,11.57
2019-05-18T21:03:04.965Z,7.47
2019-05-18T21:07:58.522Z,6.03
2019-05-18T21:12:51.970Z,4.90
2019-05-18T21:17:46.624Z,5.60
2019-05-18T21:22:40.248Z,5.90
2019-05-18T21:27:33.738Z,5.57
2019-05-18T21:32:27.371Z,7.00
2019-05-18T21:37:21.197Z,5.90
2019-05-18T21:42:15.083Z,7.13
2019-05-18T21:47:08.792Z,7.07
2019-05-18T21:52:02.653Z,6.27
2019-05-18T21:56:56.175Z,9.03
2019-05-18T22:01:49.751Z,7.57
2019-05-18T22:06:43.413Z,7.70
2019-05-18T22:11:37.150Z,5.60
2019-05-18T22:16:31.123Z,6.17
2019-05-18T22:21:24.593Z,6.43
2019-05-18T22:26:18.054Z,6.07
2019-05-18T22:31:11.519Z,5.13
2019-05-18T22:36:06.998Z,5.93
2019-05-18T22:41:00.234Z,5.43
2019-05-18T22:45:54.025Z,6.43
2019-05-18T22:50:47.630Z,8.23
2019-05-18T22:55:41.172Z,5.43
2019-05-18T23:00:34.998Z,9.37
2019-05-18T23:05:28.239Z,7.17
2019-05-18T23:10:21.864Z,6.80
2019-05-18T23:15:15.441Z,6.97
2019-05-18T23:20:08.884Z,5.90
2019-05-18T23:25:02.691Z,6.30
2019-05-18T23:29:56.506Z,6.23
2019-05-18T23:34:50.490Z,7.10
2019-05-18T23:39:43.899Z,7.23
2019-05-18T23:44:38.555Z,7.77
2019-05-18T23:49:32.367Z,8.87
2019-05-18T23:54:25.974Z,7.57
2019-05-18T23:59:19.504Z,10.40
